createdAt,value
2023-05-18T00:00:47.566Z,21.67
2023-05-18T00:01:53.751Z,21.67
2023-05-18T00:02:59.312Z,21.68
2023-05-18T00:04:05.243Z,21.68
2023-05-18T00:05:10.968Z,21.66
2023-05-18T00:06:16.490Z,21.67
2023-05-18T00:07:22.028Z,21.66
2023-05-18T00:08:27.539Z,21.65
2023-05-18T00:09:33.030Z,21.66
2023-05-18T00:10:38.594Z,21.66
2023-05-18T00:11:44.192Z,21.66
2023-05-18T00:12:49.668Z,21.65
2023-05-18T00:13:55.186Z,21.64
2023-05-18T00:15:00.725Z,21.65
2023-05-18T00:16:06.332Z,21.67
2023-05-18T00:17:11.957Z,21.66
2023-05-18T00:18:17.632Z,21.66
2023-05-18T00:19:23.218Z,21.66
2023-05-18T00:20:28.877Z,21.65
2023-05-18T00:21:34.377Z,21.64
2023-05-18T00:22:39.915Z,21.65
2023-05-18T00:23:45.436Z,21.65
2023-05-18T00:24:51.200Z,21.65
2023-05-18T00:25:56.721Z,21.65
2023-05-18T00:27:02.275Z,21.65
2023-05-18T00:28:07.782Z,21.65
2023-05-18T00:29:13.290Z,21.66
2023-05-18T00:30:18.865Z,21.66
2023-05-18T00:31:24.379Z,21.66
2023-05-18T00:32:30.046Z,21.65
2023-05-18T00:33:35.748Z,21.64
2023-05-18T00:34:41.230Z,21.64
2023-05-18T00:35:46.720Z,21.66
2023-05-18T00:36:52.260Z,21.65
2023-05-18T00:37:57.786Z,21.66
2023-05-18T00:39:04.354Z,21.65
2023-05-18T00:40:09.905Z,21.66
2023-05-18T00:41:15.453Z,21.64
2023-05-18T00:42:20.925Z,21.64
2023-05-18T00:43:26.424Z,21.64
2023-05-18T00:44:31.967Z,21.64
2023-05-18T00:45:37.503Z,21.65
2023-05-18T00:46:43.255Z,21.64
2023-05-18T00:47:48.794Z,21.64
2023-05-18T00:48:54.409Z,21.64
2023-05-18T00:49:59.951Z,21.64
2023-05-18T00:51:05.459Z,21.64
2023-05-18T00:52:10.997Z,21.64
2023-05-18T00:53:16.461Z,21.64
2023-05-18T00:54:21.984Z,21.66
2023-05-18T00:55:27.585Z,21.67
2023-05-18T00:56:33.872Z,21.66
2023-05-18T00:57:39.353Z,21.66
2023-05-18T00:58:44.891Z,21.67
2023-05-18T00:59:50.374Z,21.67
2023-05-18T01:00:55.944Z,21.66
2023-05-18T01:02:01.700Z,21.66
2023-05-18T01:03:07.438Z,21.66
2023-05-18T01:04:13.528Z,21.66
2023-05-18T01:05:19.083Z,21.66
2023-05-18T01:06:24.597Z,21.65
2023-05-18T01:07:30.359Z,21.66
2023-05-18T01:08:35.900Z,21.66
2023-05-18T01:09:41.453Z,21.67
2023-05-18T01:10:47.004Z,21.67
2023-05-18T01:11:52.529Z,21.66
2023-05-18T01:12:58.128Z,21.64
2023-05-18T01:14:03.665Z,21.65
2023-05-18T01:15:09.217Z,21.66
2023-05-18T01:16:14.736Z,21.65
2023-05-18T01:17:20.237Z,21.66
2023-05-18T01:18:25.948Z,21.65
2023-05-18T01:19:31.434Z,21.65
2023-05-18T01:20:36.882Z,21.66
2023-05-18T01:21:42.382Z,21.66
2023-05-18T01:22:47.854Z,21.66
2023-05-18T01:23:53.415Z,21.67
2023-05-18T01:24:58.864Z,21.66
2023-05-18T01:26:05.299Z,21.66
2023-05-18T01:27:10.814Z,21.66
2023-05-18T01:28:16.292Z,21.65
2023-05-18T01:29:21.843Z,21.65
2023-05-18T01:30:27.305Z,21.65
2023-05-18T01:31:32.839Z,21.65
2023-05-18T01:32:38.496Z,21.65
2023-05-18T01:33:44.066Z,21.65
2023-05-18T01:34:49.563Z,21.64
2023-05-18T01:35:55.023Z,21.65
2023-05-18T01:37:00.515Z,21.64
2023-05-18T01:38:05.961Z,21.66
2023-05-18T01:39:11.423Z,21.65
2023-05-18T01:40:16.868Z,21.65
2023-05-18T01:41:22.441Z,21.66
2023-05-18T01:42:30.414Z,21.65
2023-05-18T01:43:35.889Z,21.64
2023-05-18T01:44:41.397Z,21.65
2023-05-18T01:45:46.884Z,21.65
2023-05-18T01:46:52.399Z,21.64
2023-05-18T01:47:58.136Z,21.64
2023-05-18T01:49:03.787Z,21.64
2023-05-18T01:50:09.235Z,21.64
2023-05-18T01:51:14.719Z,21.64
2023-05-18T01:52:20.178Z,21.65
2023-05-18T01:53:25.643Z,21.64
2023-05-18T01:54:31.140Z,21.64
2023-05-18T01:55:36.612Z,21.64
2023-05-18T01:56:42.088Z,21.64
2023-05-18T01:57:47.557Z,21.64
2023-05-18T01:58:53.024Z,21.64
2023-05-18T01:59:58.493Z,21.64
2023-05-18T02:01:03.952Z,21.64
2023-05-18T02:02:09.437Z,21.65
2023-05-18T02:03:15.205Z,21.64
2023-05-18T02:04:21.003Z,21.65
2023-05-18T02:05:26.468Z,21.66
2023-05-18T02:06:32.548Z,21.66
2023-05-18T02:07:38.020Z,21.66
2023-05-18T02:08:43.583Z,21.66
2023-05-18T02:09:49.314Z,21.66
2023-05-18T02:10:54.791Z,21.65
2023-05-18T02:12:00.275Z,21.65
2023-05-18T02:13:05.716Z,21.65
2023-05-18T02:14:11.225Z,21.66
2023-05-18T02:15:16.706Z,21.65
2023-05-18T02:16:22.278Z,21.64
2023-05-18T02:17:27.935Z,21.64
2023-05-18T02:18:33.532Z,21.64
2023-05-18T02:19:39.669Z,21.64
2023-05-18T02:20:45.178Z,21.64
2023-05-18T02:21:50.626Z,21.64
2023-05-18T02:22:56.054Z,21.64
2023-05-18T02:24:01.524Z,21.62
2023-05-18T02:25:06.980Z,21.63
2023-05-18T02:26:12.441Z,21.62
2023-05-18T02:27:17.897Z,21.62
2023-05-18T02:28:23.409Z,21.61
2023-05-18T02:29:28.887Z,21.62
2023-05-18T02:30:34.428Z,21.61
2023-05-18T02:31:39.911Z,21.61
2023-05-18T02:32:45.533Z,21.61
2023-05-18T02:33:51.614Z,21.63
2023-05-18T02:34:57.081Z,21.63
2023-05-18T02:36:02.588Z,21.64
2023-05-18T02:37:08.046Z,21.64
2023-05-18T02:38:13.480Z,21.63
2023-05-18T02:39:19.079Z,21.63
2023-05-18T02:40:24.536Z,21.62
2023-05-18T02:41:31.099Z,21.62
2023-05-18T02:42:36.535Z,21.63
2023-05-18T02:43:42.030Z,21.61
2023-05-18T02:44:47.516Z,21.62
2023-05-18T02:45:53.046Z,21.62
2023-05-18T02:46:58.606Z,21.61
2023-05-18T02:48:04.107Z,21.61
2023-05-18T02:49:09.747Z,21.6
2023-05-18T02:50:15.227Z,21.61
2023-05-18T02:51:20.723Z,21.6
2023-05-18T02:52:26.181Z,21.59
2023-05-18T02:53:31.670Z,21.6
2023-05-18T02:54:37.144Z,21.6
2023-05-18T02:55:42.630Z,21.6
2023-05-18T02:56:48.083Z,21.59
2023-05-18T02:57:53.540Z,21.6
2023-05-18T02:58:58.985Z,21.59
2023-05-18T03:00:04.464Z,21.6
2023-05-18T03:01:10.009Z,21.6
2023-05-18T03:02:15.668Z,21.6
2023-05-18T03:03:21.471Z,21.6
2023-05-18T03:04:27.370Z,21.6
2023-05-18T03:05:32.822Z,21.62
2023-05-18T03:06:38.328Z,21.62
2023-05-18T03:07:43.770Z,21.62
2023-05-18T03:08:49.238Z,21.61
2023-05-18T03:09:54.929Z,21.64
2023-05-18T03:11:00.451Z,21.64
2023-05-18T03:12:05.965Z,21.63
2023-05-18T03:13:11.429Z,21.63
2023-05-18T03:14:16.898Z,21.64
2023-05-18T03:15:22.366Z,21.64
2023-05-18T03:16:27.882Z,21.64
2023-05-18T03:17:33.545Z,21.66
2023-05-18T03:18:39.183Z,21.67
2023-05-18T03:19:44.825Z,21.66
2023-05-18T03:20:50.404Z,21.65
2023-05-18T03:21:55.859Z,21.65
2023-05-18T03:23:01.350Z,21.66
2023-05-18T03:24:06.801Z,21.64
2023-05-18T03:25:12.290Z,21.65
2023-05-18T03:26:17.774Z,21.66
2023-05-18T03:27:23.313Z,21.66
2023-05-18T03:28:28.791Z,21.67
2023-05-18T03:29:34.324Z,21.67
2023-05-18T03:30:39.793Z,21.67
2023-05-18T03:31:45.293Z,21.69
2023-05-18T03:32:51.043Z,21.7
2023-05-18T03:33:56.590Z,21.71
2023-05-18T03:35:02.389Z,21.72
2023-05-18T03:36:07.852Z,21.73
2023-05-18T03:37:13.344Z,21.74
2023-05-18T03:38:18.802Z,21.74
2023-05-18T03:39:24.256Z,21.74
2023-05-18T03:40:30.210Z,21.74
2023-05-18T03:41:35.696Z,21.74
2023-05-18T03:42:41.206Z,21.75
2023-05-18T03:43:46.712Z,21.74
2023-05-18T03:44:52.191Z,21.76
2023-05-18T03:45:57.730Z,21.77
2023-05-18T03:47:03.384Z,21.77
2023-05-18T03:48:08.854Z,21.77
2023-05-18T03:49:14.538Z,21.77
2023-05-18T03:50:19.988Z,21.77
2023-05-18T03:51:25.439Z,21.79
2023-05-18T03:52:30.924Z,21.78
2023-05-18T03:53:36.415Z,21.77
2023-05-18T03:54:42.054Z,21.77
2023-05-18T03:55:47.578Z,21.77
2023-05-18T03:56:53.040Z,21.77
2023-05-18T03:57:58.541Z,21.77
2023-05-18T03:59:03.982Z,21.76
2023-05-18T04:00:09.493Z,21.77
2023-05-18T04:01:15.005Z,21.76
2023-05-18T04:02:20.512Z,21.77
2023-05-18T04:03:26.325Z,21.77
2023-05-18T04:04:32.037Z,21.79
2023-05-18T04:05:37.514Z,21.86
2023-05-18T04:06:43.043Z,21.85
2023-05-18T04:07:50.980Z,21.83
2023-05-18T04:08:56.460Z,21.78
2023-05-18T04:10:01.909Z,21.73
2023-05-18T04:11:07.441Z,21.71
2023-05-18T04:12:12.931Z,21.68
2023-05-18T04:13:18.398Z,21.67
2023-05-18T04:14:23.834Z,21.69
2023-05-18T04:15:29.501Z,21.68
2023-05-18T04:16:35.688Z,21.65
2023-05-18T04:17:41.241Z,21.65
2023-05-18T04:18:46.887Z,21.67
2023-05-18T04:19:52.476Z,21.67
2023-05-18T04:20:57.923Z,21.65
2023-05-18T04:22:03.407Z,21.66
2023-05-18T04:23:08.864Z,21.69
2023-05-18T04:24:14.524Z,21.66
2023-05-18T04:25:19.973Z,21.68
2023-05-18T04:26:25.489Z,21.69
2023-05-18T04:27:30.970Z,21.72
2023-05-18T04:28:36.463Z,21.73
2023-05-18T04:29:41.965Z,21.75
2023-05-18T04:30:47.412Z,21.75
2023-05-18T04:31:53.057Z,21.75
2023-05-18T04:32:58.889Z,21.75
2023-05-18T04:34:04.631Z,21.77
2023-05-18T04:35:10.110Z,21.77
2023-05-18T04:36:15.803Z,21.77
2023-05-18T04:37:24.053Z,21.77
2023-05-18T04:38:29.502Z,21.76
2023-05-18T04:39:34.953Z,21.74
2023-05-18T04:40:40.491Z,21.76
2023-05-18T04:41:46.020Z,21.75
2023-05-18T04:42:51.477Z,21.76
2023-05-18T04:43:56.933Z,21.76
2023-05-18T04:45:04.633Z,21.77
2023-05-18T04:46:10.128Z,21.75
2023-05-18T04:47:15.692Z,21.73
2023-05-18T04:48:21.182Z,21.72
2023-05-18T04:49:26.679Z,21.72
2023-05-18T04:50:32.164Z,21.7
2023-05-18T04:51:37.610Z,21.69
2023-05-18T04:52:43.102Z,21.67
2023-05-18T04:53:48.606Z,21.68
2023-05-18T04:54:54.103Z,21.66
2023-05-18T04:55:59.569Z,21.65
2023-05-18T04:57:06.124Z,21.66
2023-05-18T04:58:11.591Z,21.64
2023-05-18T04:59:17.066Z,21.65
2023-05-18T05:00:22.564Z,21.64
2023-05-18T05:01:28.053Z,21.65
2023-05-18T05:02:33.875Z,21.64
2023-05-18T05:03:39.714Z,21.64
2023-05-18T05:04:45.723Z,21.64
2023-05-18T05:05:51.217Z,21.63
2023-05-18T05:06:56.663Z,21.6
2023-05-18T05:08:02.147Z,21.6
2023-05-18T05:09:07.662Z,21.6
2023-05-18T05:10:13.136Z,21.61
2023-05-18T05:11:18.608Z,21.61
2023-05-18T05:12:24.157Z,21.61
2023-05-18T05:13:29.623Z,21.59
2023-05-18T05:14:35.110Z,21.59
2023-05-18T05:15:40.602Z,21.59
2023-05-18T05:16:46.306Z,21.6
2023-05-18T05:17:51.840Z,21.6
2023-05-18T05:18:57.529Z,21.6
2023-05-18T05:20:03.214Z,21.63
2023-05-18T05:21:08.717Z,21.59
2023-05-18T05:22:15.240Z,21.59
2023-05-18T05:23:20.716Z,21.6
2023-05-18T05:24:26.169Z,21.6
2023-05-18T05:25:31.817Z,21.61
2023-05-18T05:26:37.537Z,21.59
2023-05-18T05:27:43.006Z,21.6
2023-05-18T05:28:48.475Z,21.61
2023-05-18T05:29:53.975Z,21.62
2023-05-18T05:30:59.458Z,21.63
2023-05-18T05:32:05.137Z,21.62
2023-05-18T05:33:10.658Z,21.6
2023-05-18T05:34:16.250Z,21.59
2023-05-18T05:35:21.770Z,21.58
2023-05-18T05:36:27.240Z,21.6
2023-05-18T05:37:32.690Z,21.59
2023-05-18T05:38:38.146Z,21.57
2023-05-18T05:39:43.627Z,21.57
2023-05-18T05:40:49.159Z,21.56
2023-05-18T05:41:57.820Z,21.57
2023-05-18T05:43:03.314Z,21.58
2023-05-18T05:44:08.793Z,21.56
2023-05-18T05:45:14.247Z,21.56
2023-05-18T05:46:19.792Z,21.59
2023-05-18T05:47:25.479Z,21.58
2023-05-18T05:48:31.091Z,21.57
2023-05-18T05:49:36.561Z,21.56
2023-05-18T05:50:42.030Z,21.57
2023-05-18T05:51:47.536Z,21.56
2023-05-18T05:52:53.007Z,21.54
2023-05-18T05:53:58.498Z,21.55
2023-05-18T05:55:03.958Z,21.55
2023-05-18T05:56:09.420Z,21.56
2023-05-18T05:57:14.879Z,21.56
2023-05-18T05:58:20.430Z,21.58
2023-05-18T05:59:25.901Z,21.58
2023-05-18T06:00:31.484Z,21.56
2023-05-18T06:01:36.991Z,21.55
2023-05-18T06:02:42.624Z,21.54
2023-05-18T06:03:48.402Z,21.51
2023-05-18T06:04:54.037Z,21.52
2023-05-18T06:05:59.496Z,21.53
2023-05-18T06:07:04.976Z,21.55
2023-05-18T06:08:10.841Z,21.54
2023-05-18T06:09:16.338Z,21.53
2023-05-18T06:10:21.939Z,21.52
2023-05-18T06:11:27.409Z,21.53
2023-05-18T06:12:32.858Z,21.53
2023-05-18T06:13:38.356Z,21.53
2023-05-18T06:14:43.939Z,21.54
2023-05-18T06:15:49.392Z,21.54
2023-05-18T06:16:54.909Z,21.53
2023-05-18T06:18:00.669Z,21.52
2023-05-18T06:19:06.350Z,21.53
2023-05-18T06:20:11.976Z,21.52
2023-05-18T06:21:17.461Z,21.53
2023-05-18T06:22:22.901Z,21.51
2023-05-18T06:23:28.378Z,21.52
2023-05-18T06:24:33.868Z,21.52
2023-05-18T06:25:39.349Z,21.52
2023-05-18T06:26:44.833Z,21.51
2023-05-18T06:27:50.329Z,21.52
2023-05-18T06:28:55.895Z,21.51
2023-05-18T06:30:01.393Z,21.51
2023-05-18T06:31:06.852Z,21.51
2023-05-18T06:32:12.718Z,21.51
2023-05-18T06:33:18.409Z,21.5
2023-05-18T06:34:23.936Z,21.49
2023-05-18T06:35:29.698Z,21.49
2023-05-18T06:36:35.793Z,21.46
2023-05-18T06:37:41.281Z,21.47
2023-05-18T06:38:50.789Z,21.47
2023-05-18T06:39:56.416Z,21.45
2023-05-18T06:41:02.128Z,21.39
2023-05-18T06:42:07.616Z,21.34
2023-05-18T06:43:13.185Z,21.33
2023-05-18T06:44:18.653Z,21.33
2023-05-18T06:45:24.126Z,21.28
2023-05-18T06:46:29.655Z,21.26
2023-05-18T06:47:35.367Z,21.26
2023-05-18T06:48:41.018Z,21.22
2023-05-18T06:49:46.472Z,21.23
2023-05-18T06:50:52.060Z,21.2
2023-05-18T06:51:57.547Z,21.2
2023-05-18T06:53:02.993Z,21.16
2023-05-18T06:54:08.481Z,21.17
2023-05-18T06:55:13.995Z,21.18
2023-05-18T06:56:19.615Z,21.17
2023-05-18T06:57:25.087Z,21.15
2023-05-18T06:58:30.614Z,21.14
2023-05-18T06:59:36.202Z,21.11
2023-05-18T07:00:41.697Z,21.13
2023-05-18T07:01:47.224Z,21.12
2023-05-18T07:02:52.904Z,21.12
2023-05-18T07:03:58.668Z,21.13
2023-05-18T07:05:04.352Z,21.12
2023-05-18T07:06:09.898Z,21.08
2023-05-18T07:07:15.435Z,21.08
2023-05-18T07:08:20.996Z,21.06
2023-05-18T07:09:26.500Z,21.05
2023-05-18T07:10:31.971Z,21.04
2023-05-18T07:11:37.439Z,21.06
2023-05-18T07:12:42.905Z,21.03
2023-05-18T07:13:48.373Z,21.04
2023-05-18T07:14:53.849Z,21.03
2023-05-18T07:15:59.350Z,21.02
2023-05-18T07:17:04.883Z,21.01
2023-05-18T07:18:10.426Z,20.99
2023-05-18T07:19:16.081Z,20.98
2023-05-18T07:20:22.315Z,20.96
2023-05-18T07:21:30.830Z,20.97
2023-05-18T07:22:36.330Z,20.97
2023-05-18T07:23:41.826Z,20.97
2023-05-18T07:24:47.272Z,20.97
2023-05-18T07:25:52.743Z,20.97
2023-05-18T07:27:00.128Z,20.96
2023-05-18T07:28:06.179Z,21.07
2023-05-18T07:29:11.642Z,21.11
2023-05-18T07:30:17.328Z,21.11
2023-05-18T07:31:22.992Z,21.09
2023-05-18T07:32:28.582Z,21.06
2023-05-18T07:33:34.188Z,21.05
2023-05-18T07:34:41.851Z,21.01
2023-05-18T07:35:50.353Z,20.98
2023-05-18T07:36:55.862Z,20.99
2023-05-18T07:38:01.341Z,20.96
2023-05-18T07:39:06.872Z,20.94
2023-05-18T07:40:12.367Z,20.93
2023-05-18T07:41:17.841Z,20.93
2023-05-18T07:42:23.336Z,20.94
2023-05-18T07:43:28.823Z,20.95
2023-05-18T07:44:34.306Z,20.92
2023-05-18T07:45:39.792Z,20.91
2023-05-18T07:46:45.280Z,20.89
2023-05-18T07:47:53.129Z,20.91
2023-05-18T07:48:58.796Z,20.89
2023-05-18T07:50:04.332Z,20.91
2023-05-18T07:51:09.822Z,20.91
2023-05-18T07:52:15.346Z,20.92
2023-05-18T07:53:21.056Z,20.9
2023-05-18T07:54:26.572Z,20.89
2023-05-18T07:55:32.437Z,20.9
2023-05-18T07:56:38.479Z,20.9
2023-05-18T07:57:43.953Z,20.89
2023-05-18T07:58:49.468Z,20.9
2023-05-18T07:59:55.059Z,20.89
2023-05-18T08:01:00.537Z,20.88
2023-05-18T08:02:06.052Z,20.9
2023-05-18T08:03:11.986Z,20.87
2023-05-18T08:04:17.737Z,20.88
2023-05-18T08:05:23.299Z,20.88
2023-05-18T08:06:28.815Z,20.86
2023-05-18T08:07:34.261Z,20.89
2023-05-18T08:08:39.706Z,20.9
2023-05-18T08:09:45.205Z,20.91
2023-05-18T08:10:50.699Z,20.89
2023-05-18T08:11:56.189Z,20.88
2023-05-18T08:13:01.796Z,20.87
2023-05-18T08:14:07.274Z,20.87
2023-05-18T08:15:12.731Z,20.86
2023-05-18T08:16:18.197Z,20.85
2023-05-18T08:17:23.821Z,20.86
2023-05-18T08:18:29.498Z,20.86
2023-05-18T08:19:35.002Z,20.86
2023-05-18T08:20:42.465Z,20.84
2023-05-18T08:21:47.967Z,20.88
2023-05-18T08:22:53.473Z,20.86
2023-05-18T08:23:58.976Z,20.87
2023-05-18T08:25:04.438Z,20.86
2023-05-18T08:26:10.990Z,20.86
2023-05-18T08:27:18.307Z,20.86
2023-05-18T08:28:24.803Z,20.87
2023-05-18T08:29:30.288Z,20.84
2023-05-18T08:30:35.770Z,20.84
2023-05-18T08:31:41.267Z,20.86
2023-05-18T08:32:48.081Z,20.86
2023-05-18T08:33:53.698Z,20.85
2023-05-18T08:34:59.194Z,20.83
2023-05-18T08:36:05.694Z,20.83
2023-05-18T08:37:11.158Z,20.84
2023-05-18T08:38:16.583Z,20.84
2023-05-18T08:39:22.081Z,20.83
2023-05-18T08:40:27.522Z,20.82
2023-05-18T08:41:33.008Z,20.82
2023-05-18T08:42:49.040Z,20.83
2023-05-18T08:43:55.427Z,20.81
2023-05-18T08:45:00.965Z,20.8
2023-05-18T08:46:06.569Z,20.79
2023-05-18T08:47:12.073Z,20.79
2023-05-18T08:48:17.598Z,20.81
2023-05-18T08:49:23.360Z,20.8
2023-05-18T08:50:29.021Z,20.81
2023-05-18T08:51:35.406Z,20.83
2023-05-18T08:52:40.887Z,20.82
2023-05-18T08:53:46.409Z,20.82
2023-05-18T08:54:51.892Z,20.82
2023-05-18T08:55:57.365Z,20.84
2023-05-18T08:57:03.003Z,20.83
2023-05-18T08:58:08.507Z,20.85
2023-05-18T08:59:13.990Z,20.85
2023-05-18T09:00:19.731Z,20.83
2023-05-18T09:01:28.731Z,20.82
2023-05-18T09:02:34.683Z,20.82
2023-05-18T09:03:40.329Z,20.82
2023-05-18T09:04:45.902Z,20.86
2023-05-18T09:05:51.511Z,20.86
2023-05-18T09:06:56.988Z,20.86
2023-05-18T09:08:02.456Z,20.86
2023-05-18T09:09:08.019Z,20.88
2023-05-18T09:10:13.593Z,20.88
2023-05-18T09:11:19.101Z,20.88
2023-05-18T09:12:24.865Z,20.89
2023-05-18T09:13:30.416Z,20.9
2023-05-18T09:14:35.865Z,20.91
2023-05-18T09:15:41.368Z,20.92
2023-05-18T09:16:46.936Z,20.92
2023-05-18T09:17:52.616Z,20.92
2023-05-18T09:18:58.307Z,20.92
2023-05-18T09:20:04.051Z,20.92
2023-05-18T09:21:09.540Z,20.92
2023-05-18T09:22:15.012Z,20.93
2023-05-18T09:23:20.515Z,20.94
2023-05-18T09:24:25.959Z,20.93
2023-05-18T09:25:31.643Z,20.93
2023-05-18T09:26:37.264Z,20.94
2023-05-18T09:27:42.769Z,20.96
2023-05-18T09:28:48.255Z,20.98
2023-05-18T09:29:53.770Z,20.97
2023-05-18T09:30:59.227Z,20.95
2023-05-18T09:32:04.930Z,20.99
2023-05-18T09:33:10.728Z,20.98
2023-05-18T09:34:16.592Z,21
2023-05-18T09:35:22.199Z,20.98
2023-05-18T09:36:27.646Z,20.99
2023-05-18T09:37:33.135Z,21
2023-05-18T09:38:38.600Z,20.99
2023-05-18T09:39:44.046Z,21
2023-05-18T09:40:49.501Z,21.03
2023-05-18T09:41:54.942Z,21.01
2023-05-18T09:43:00.438Z,21.02
2023-05-18T09:44:05.935Z,21.02
2023-05-18T09:45:11.389Z,21.03
2023-05-18T09:46:16.840Z,21.02
2023-05-18T09:47:22.441Z,21.03
2023-05-18T09:48:28.186Z,21.03
2023-05-18T09:49:33.635Z,21.03
2023-05-18T09:50:39.070Z,21.02
2023-05-18T09:51:44.527Z,21.03
2023-05-18T09:52:50.001Z,21.03
2023-05-18T09:53:55.522Z,21.01
2023-05-18T09:55:01.008Z,21
2023-05-18T09:56:06.503Z,20.98
2023-05-18T09:57:11.980Z,20.97
2023-05-18T09:58:17.439Z,21
2023-05-18T09:59:22.960Z,21.02
2023-05-18T10:00:28.474Z,20.99
2023-05-18T10:01:33.980Z,20.99
2023-05-18T10:02:39.595Z,20.96
2023-05-18T10:03:45.208Z,20.98
2023-05-18T10:04:50.968Z,20.99
2023-05-18T10:05:56.600Z,20.99
2023-05-18T10:07:02.049Z,20.96
2023-05-18T10:08:07.524Z,20.95
2023-05-18T10:09:13.076Z,20.96
2023-05-18T10:10:18.565Z,20.99
2023-05-18T10:11:24.207Z,20.99
2023-05-18T10:12:29.676Z,21
2023-05-18T10:13:35.187Z,21
2023-05-18T10:14:40.638Z,21
2023-05-18T10:15:46.096Z,21
2023-05-18T10:16:55.159Z,20.98
2023-05-18T10:18:20.244Z,20.99
2023-05-18T10:19:25.952Z,20.99
2023-05-18T10:20:31.809Z,20.99
2023-05-18T10:21:37.415Z,21.01
2023-05-18T10:22:42.880Z,21.02
2023-05-18T10:23:48.349Z,21.03
2023-05-18T10:24:53.834Z,21.02
2023-05-18T10:25:59.301Z,21.05
2023-05-18T10:27:04.837Z,21.04
2023-05-18T10:28:10.629Z,21.04
2023-05-18T10:29:16.177Z,21.03
2023-05-18T10:30:21.649Z,21.03
2023-05-18T10:31:27.195Z,21.03
2023-05-18T10:32:33.102Z,21.01
2023-05-18T10:33:39.719Z,21
2023-05-18T10:34:45.383Z,21.01
2023-05-18T10:35:50.851Z,21.01
2023-05-18T10:36:56.308Z,21.01
2023-05-18T10:38:01.801Z,21.01
2023-05-18T10:39:07.292Z,21
2023-05-18T10:40:12.773Z,21
2023-05-18T10:41:18.248Z,21
2023-05-18T10:42:23.761Z,21
2023-05-18T10:43:29.288Z,21
2023-05-18T10:44:34.811Z,21
2023-05-18T10:45:40.294Z,20.99
2023-05-18T10:46:45.834Z,21.01
2023-05-18T10:47:51.728Z,21.01
2023-05-18T10:48:57.547Z,21.01
2023-05-18T10:50:03.031Z,21
2023-05-18T10:51:08.530Z,21.01
2023-05-18T10:52:14.009Z,21
2023-05-18T10:53:19.496Z,21.02
2023-05-18T10:54:25.098Z,21.03
2023-05-18T10:55:30.583Z,21.03
2023-05-18T10:56:36.032Z,21.04
2023-05-18T10:57:41.500Z,21.06
2023-05-18T10:58:47.015Z,21.05
2023-05-18T10:59:52.495Z,21.05
2023-05-18T11:00:58.033Z,21.04
2023-05-18T11:02:03.684Z,21.03
2023-05-18T11:03:09.333Z,21.03
2023-05-18T11:04:14.979Z,21.06
2023-05-18T11:05:20.586Z,21.05
2023-05-18T11:06:26.439Z,21.04
2023-05-18T11:07:31.902Z,21.04
2023-05-18T11:08:37.501Z,21.03
2023-05-18T11:09:42.997Z,21.06
2023-05-18T11:10:48.803Z,21.09
2023-05-18T11:11:55.284Z,21.09
2023-05-18T11:13:00.751Z,21.07
2023-05-18T11:14:06.252Z,21.07
2023-05-18T11:15:11.711Z,21.06
2023-05-18T11:16:17.273Z,21.06
2023-05-18T11:17:22.982Z,21.06
2023-05-18T11:18:28.626Z,21.06
2023-05-18T11:19:34.077Z,21.04
2023-05-18T11:20:39.546Z,21.05
2023-05-18T11:21:45.045Z,21.05
2023-05-18T11:22:50.497Z,21.04
2023-05-18T11:23:55.981Z,21.04
2023-05-18T11:25:01.461Z,21.04
2023-05-18T11:26:06.933Z,21.04
2023-05-18T11:27:12.434Z,21.03
2023-05-18T11:28:17.897Z,21.03
2023-05-18T11:29:23.396Z,21.02
2023-05-18T11:30:28.849Z,21.02
2023-05-18T11:31:34.558Z,21.02
2023-05-18T11:32:40.255Z,21.02
2023-05-18T11:33:45.980Z,21.01
2023-05-18T11:34:52.661Z,21.01
2023-05-18T11:35:58.155Z,21.01
2023-05-18T11:37:03.628Z,21.01
2023-05-18T11:38:09.111Z,21
2023-05-18T11:39:14.595Z,21
2023-05-18T11:40:20.072Z,21
2023-05-18T11:41:25.540Z,21.03
2023-05-18T11:42:31.055Z,21.02
2023-05-18T11:43:36.665Z,21.01
2023-05-18T11:44:42.127Z,21.01
2023-05-18T11:45:47.569Z,21.01
2023-05-18T11:46:53.013Z,21.01
2023-05-18T11:47:58.568Z,21.01
2023-05-18T11:49:04.322Z,21.02
2023-05-18T11:50:09.974Z,21.02
2023-05-18T11:51:15.729Z,21.02
2023-05-18T11:52:21.272Z,21.03
2023-05-18T11:53:26.776Z,21.02
2023-05-18T11:54:32.353Z,21.02
2023-05-18T11:55:37.815Z,21.03
2023-05-18T11:56:43.282Z,21.02
2023-05-18T11:57:48.773Z,21.02
2023-05-18T11:58:54.287Z,21.01
2023-05-18T12:00:02.915Z,21.01
2023-05-18T12:01:08.438Z,21.01
2023-05-18T12:02:13.939Z,21.01
2023-05-18T12:03:19.599Z,21.01
2023-05-18T12:04:25.404Z,21.02
2023-05-18T12:05:31.080Z,21.01
2023-05-18T12:06:36.603Z,21.02
2023-05-18T12:07:42.063Z,21.02
2023-05-18T12:08:47.873Z,21.02
2023-05-18T12:09:53.343Z,21.03
2023-05-18T12:10:58.812Z,21.04
2023-05-18T12:12:04.331Z,21.04
2023-05-18T12:13:09.823Z,21.03
2023-05-18T12:14:15.273Z,21.03
2023-05-18T12:15:20.748Z,21.03
2023-05-18T12:16:26.278Z,21.03
2023-05-18T12:17:31.951Z,21.03
2023-05-18T12:18:37.658Z,21.03
2023-05-18T12:19:43.382Z,21.02
2023-05-18T12:20:48.859Z,21.02
2023-05-18T12:21:54.623Z,21.02
2023-05-18T12:23:03.043Z,21.05
2023-05-18T12:24:08.505Z,21.02
2023-05-18T12:25:14.016Z,21.04
2023-05-18T12:26:19.502Z,21.03
2023-05-18T12:27:24.943Z,21.05
2023-05-18T12:28:30.427Z,21.05
2023-05-18T12:29:35.885Z,21.04
2023-05-18T12:30:41.402Z,21.05
2023-05-18T12:31:47.673Z,21.03
2023-05-18T12:32:53.264Z,21.03
2023-05-18T12:33:59.488Z,21.04
2023-05-18T12:35:05.028Z,21.03
2023-05-18T12:36:10.553Z,21.03
2023-05-18T12:37:16.042Z,21.02
2023-05-18T12:38:21.505Z,21.03
2023-05-18T12:39:28.718Z,21.03
2023-05-18T12:40:34.364Z,21.03
2023-05-18T12:41:39.896Z,21.05
2023-05-18T12:42:45.375Z,21.05
2023-05-18T12:43:50.834Z,21.08
2023-05-18T12:44:56.281Z,21.09
2023-05-18T12:46:01.772Z,21.07
2023-05-18T12:47:07.424Z,21.06
2023-05-18T12:48:12.961Z,21.06
2023-05-18T12:49:18.546Z,21.06
2023-05-18T12:50:24.012Z,21.05
2023-05-18T12:51:29.911Z,21.06
2023-05-18T12:52:35.457Z,21.06
2023-05-18T12:53:40.920Z,21.09
2023-05-18T12:54:46.369Z,21.08
2023-05-18T12:55:51.815Z,21.07
2023-05-18T12:56:57.933Z,21.09
2023-05-18T12:58:06.314Z,21.07
2023-05-18T12:59:12.094Z,21.09
2023-05-18T13:00:17.551Z,21.11
2023-05-18T13:01:23.020Z,21.09
2023-05-18T13:02:28.609Z,21.08
2023-05-18T13:03:34.770Z,21.1
2023-05-18T13:04:40.461Z,21.09
2023-05-18T13:05:46.182Z,21.08
2023-05-18T13:06:51.687Z,21.07
2023-05-18T13:07:57.187Z,21.06
2023-05-18T13:09:02.611Z,21.07
2023-05-18T13:10:08.083Z,21.07
2023-05-18T13:11:14.913Z,21.08
2023-05-18T13:12:20.488Z,21.07
2023-05-18T13:13:25.999Z,21.09
2023-05-18T13:14:31.547Z,21.08
2023-05-18T13:15:37.012Z,21.08
2023-05-18T13:16:42.478Z,21.08
2023-05-18T13:17:48.071Z,21.08
2023-05-18T13:18:53.765Z,21.07
2023-05-18T13:19:59.302Z,21.09
2023-05-18T13:21:04.774Z,21.09
2023-05-18T13:22:10.226Z,21.08
2023-05-18T13:23:15.706Z,21.08
2023-05-18T13:24:21.228Z,21.07
2023-05-18T13:25:26.719Z,21.08
2023-05-18T13:26:32.460Z,21.08
2023-05-18T13:27:37.921Z,21.08
2023-05-18T13:28:43.401Z,21.08
2023-05-18T13:29:48.881Z,21.1
2023-05-18T13:30:54.326Z,21.08
2023-05-18T13:31:59.858Z,21.09
2023-05-18T13:33:06.625Z,21.11
2023-05-18T13:34:12.284Z,21.1
2023-05-18T13:35:17.774Z,21.1
2023-05-18T13:36:23.235Z,21.1
2023-05-18T13:37:30.997Z,21.11
2023-05-18T13:38:36.541Z,21.11
2023-05-18T13:39:42.022Z,21.11
2023-05-18T13:40:47.508Z,21.11
2023-05-18T13:41:53.045Z,21.11
2023-05-18T13:42:58.540Z,21.11
2023-05-18T13:44:04.039Z,21.12
2023-05-18T13:45:09.506Z,21.12
2023-05-18T13:46:18.470Z,21.12
2023-05-18T13:47:24.111Z,21.12
2023-05-18T13:48:29.676Z,21.12
2023-05-18T13:49:35.206Z,21.12
2023-05-18T13:50:40.703Z,21.12
2023-05-18T13:51:46.372Z,21.12
2023-05-18T13:52:51.816Z,21.12
2023-05-18T13:53:57.337Z,21.12
2023-05-18T13:55:02.891Z,21.13
2023-05-18T13:56:08.456Z,21.12
2023-05-18T13:57:13.980Z,21.13
2023-05-18T13:58:19.468Z,21.13
2023-05-18T13:59:24.946Z,21.13
2023-05-18T14:00:30.517Z,21.13
2023-05-18T14:01:37.092Z,21.14
2023-05-18T14:02:42.787Z,21.14
2023-05-18T14:03:49.009Z,21.14
2023-05-18T14:04:54.597Z,21.14
2023-05-18T14:06:00.166Z,21.15
2023-05-18T14:07:05.634Z,21.14
2023-05-18T14:08:11.118Z,21.14
2023-05-18T14:09:16.573Z,21.15
2023-05-18T14:10:22.059Z,21.14